createdAt,value
2019-04-01T00:00:57.825Z,987.6
2019-04-01T00:01:59.135Z,987.6
2019-04-01T00:03:00.458Z,987.6
2019-04-01T00:04:01.798Z,987.6
2019-04-01T00:05:03.053Z,987.6
2019-04-01T00:06:04.282Z,987.4
2019-04-01T00:07:05.597Z,987.6
2019-04-01T00:08:06.827Z,987.6
2019-04-01T00:09:08.052Z,987.6
2019-04-01T00:10:09.606Z,987.6
2019-04-01T00:11:10.973Z,987.6
2019-04-01T00:12:12.984Z,987.6
2019-04-01T00:13:14.205Z,987.6
2019-04-01T00:14:15.479Z,987.6
2019-04-01T00:15:16.713Z,987.6
2019-04-01T00:16:17.958Z,987.5
2019-04-01T00:17:19.234Z,987.6
2019-04-01T00:18:20.467Z,987.6
2019-04-01T00:19:21.725Z,987.6
2019-04-01T00:20:22.971Z,987.6
2019-04-01T00:21:24.262Z,987.6
2019-04-01T00:22:25.573Z,987.6
2019-04-01T00:23:26.818Z,987.5
2019-04-01T00:24:28.056Z,987.6
2019-04-01T00:25:29.389Z,987.6
2019-04-01T00:26:30.632Z,987.7
2019-04-01T00:27:31.889Z,987.6
2019-04-01T00:28:33.237Z,987.7
2019-04-01T00:29:34.447Z,987.7
2019-04-01T00:30:35.677Z,987.7
2019-04-01T00:31:36.898Z,987.7
2019-04-01T00:32:38.150Z,987.8
2019-04-01T00:33:39.389Z,987.8
2019-04-01T00:34:40.637Z,987.7
2019-04-01T00:35:41.868Z,987.7
2019-04-01T00:36:43.116Z,987.6
2019-04-01T00:37:44.416Z,987.7
2019-04-01T00:38:45.644Z,987.8
2019-04-01T00:39:46.884Z,987.8
2019-04-01T00:40:48.119Z,987.7
2019-04-01T00:41:49.352Z,987.7
2019-04-01T00:42:50.623Z,987.7
2019-04-01T00:43:54.309Z,987.8
2019-04-01T00:44:55.553Z,987.8
2019-04-01T00:45:56.789Z,987.7
2019-04-01T00:46:58.271Z,987.7
2019-04-01T00:47:59.818Z,987.7
2019-04-01T00:49:01.065Z,987.8
2019-04-01T00:50:02.417Z,987.7
2019-04-01T00:51:03.641Z,987.7
2019-04-01T00:52:04.937Z,987.7
2019-04-01T00:53:08.387Z,987.7
2019-04-01T00:54:09.625Z,987.6
2019-04-01T00:55:10.859Z,987.6
2019-04-01T00:56:12.254Z,987.6
2019-04-01T00:57:13.688Z,987.6
2019-04-01T00:58:16.815Z,987.6
2019-04-01T00:59:18.047Z,987.6
2019-04-01T01:00:19.313Z,987.6
2019-04-01T01:01:20.614Z,987.7
2019-04-01T01:02:21.869Z,987.7
2019-04-01T01:03:23.123Z,987.7
2019-04-01T01:04:24.709Z,987.7
2019-04-01T01:05:25.949Z,987.7
2019-04-01T01:06:27.265Z,987.5
2019-04-01T01:07:28.497Z,987.6
2019-04-01T01:08:30.183Z,987.5
2019-04-01T01:09:31.427Z,987.6
2019-04-01T01:10:32.866Z,987.6
2019-04-01T01:11:34.303Z,987.6
2019-04-01T01:12:35.533Z,987.7
2019-04-01T01:13:36.781Z,987.5
2019-04-01T01:14:38.377Z,987.6
2019-04-01T01:15:39.622Z,987.6
2019-04-01T01:16:40.858Z,987.6
2019-04-01T01:17:42.593Z,987.5
2019-04-01T01:18:43.866Z,987.6
2019-04-01T01:19:45.105Z,987.5
2019-04-01T01:20:46.625Z,987.6
2019-04-01T01:21:47.853Z,987.6
2019-04-01T01:22:49.081Z,987.6
2019-04-01T01:23:50.390Z,987.5
2019-04-01T01:24:51.659Z,987.5
2019-04-01T01:25:52.901Z,987.5
2019-04-01T01:26:54.167Z,987.5
2019-04-01T01:27:55.414Z,987.5
2019-04-01T01:28:56.651Z,987.4
2019-04-01T01:29:57.883Z,987.5
2019-04-01T01:30:59.375Z,987.5
2019-04-01T01:32:00.809Z,987.5
2019-04-01T01:33:02.031Z,987.5
2019-04-01T01:34:03.278Z,987.5
2019-04-01T01:35:04.505Z,987.5
2019-04-01T01:36:05.735Z,987.4
2019-04-01T01:37:06.959Z,987.6
2019-04-01T01:38:08.189Z,987.6
2019-04-01T01:39:09.445Z,987.5
2019-04-01T01:40:10.743Z,987.5
2019-04-01T01:41:11.966Z,987.5
2019-04-01T01:42:28.835Z,987.5
2019-04-01T01:43:30.411Z,987.5
2019-04-01T01:44:31.663Z,987.5
2019-04-01T01:45:33.014Z,987.5
2019-04-01T01:46:34.247Z,987.6
2019-04-01T01:47:35.482Z,987.5
2019-04-01T01:48:36.723Z,987.5
2019-04-01T01:49:37.987Z,987.4
2019-04-01T01:50:39.225Z,987.5
2019-04-01T01:51:40.499Z,987.5
2019-04-01T01:52:42.063Z,987.5
2019-04-01T01:53:43.289Z,987.4
2019-04-01T01:54:44.559Z,987.5
2019-04-01T01:55:45.846Z,987.5
2019-04-01T01:56:47.059Z,987.4
2019-04-01T01:57:48.485Z,987.5
2019-04-01T01:58:49.709Z,987.5
2019-04-01T01:59:50.962Z,987.5
2019-04-01T02:00:52.185Z,987.4
2019-04-01T02:01:53.417Z,987.4
2019-04-01T02:02:54.638Z,987.5
2019-04-01T02:03:55.870Z,987.4
2019-04-01T02:04:57.119Z,987.5
2019-04-01T02:06:00.309Z,987.2
2019-04-01T02:07:01.539Z,987.5
2019-04-01T02:08:02.768Z,987.5
2019-04-01T02:09:04.010Z,987.5
2019-04-01T02:10:05.622Z,987.5
2019-04-01T02:11:06.858Z,987.4
2019-04-01T02:12:08.255Z,987.5
2019-04-01T02:13:09.494Z,987.5
2019-04-01T02:14:10.743Z,987.5
2019-04-01T02:15:12.314Z,987.6
2019-04-01T02:16:13.558Z,987.5
2019-04-01T02:17:14.787Z,987.4
2019-04-01T02:18:16.133Z,987.5
2019-04-01T02:19:17.370Z,987.5
2019-04-01T02:20:18.634Z,987.5
2019-04-01T02:21:19.869Z,987.6
2019-04-01T02:22:21.358Z,987.6
2019-04-01T02:23:22.593Z,987.5
2019-04-01T02:24:23.826Z,987.4
2019-04-01T02:25:25.122Z,987.4
2019-04-01T02:26:26.338Z,987.5
2019-04-01T02:27:27.560Z,987.5
2019-04-01T02:28:28.784Z,987.5
2019-04-01T02:29:30.018Z,987.4
2019-04-01T02:30:31.284Z,987.4
2019-04-01T02:31:32.516Z,987.5
2019-04-01T02:32:33.761Z,987.4
2019-04-01T02:33:35.022Z,987.5
2019-04-01T02:34:36.260Z,987.4
2019-04-01T02:35:37.616Z,987.4
2019-04-01T02:36:38.891Z,987.5
2019-04-01T02:37:40.126Z,987.4
2019-04-01T02:38:41.346Z,987.5
2019-04-01T02:39:42.592Z,987.3
2019-04-01T02:40:44.444Z,987.3
2019-04-01T02:41:45.682Z,987.4
2019-04-01T02:42:46.922Z,987.4
2019-04-01T02:43:48.147Z,987.4
2019-04-01T02:44:49.368Z,987.5
2019-04-01T02:45:50.641Z,987.5
2019-04-01T02:46:51.878Z,987.5
2019-04-01T02:47:53.109Z,987.5
2019-04-01T02:48:54.361Z,987.5
2019-04-01T02:49:55.593Z,987.5
2019-04-01T02:50:56.902Z,987.5
2019-04-01T02:51:58.130Z,987.5
2019-04-01T02:52:59.370Z,987.2
2019-04-01T02:54:00.623Z,987.4
2019-04-01T02:55:07.478Z,987.4
2019-04-01T02:56:08.917Z,987.4
2019-04-01T02:57:10.146Z,987.4
2019-04-01T02:58:11.391Z,987.5
2019-04-01T02:59:12.636Z,987.4
2019-04-01T03:00:13.868Z,987.4
2019-04-01T03:01:15.485Z,987.4
2019-04-01T03:02:16.724Z,987.4
2019-04-01T03:03:17.959Z,987.4
2019-04-01T03:04:19.594Z,987.4
2019-04-01T03:05:20.858Z,987.3
2019-04-01T03:06:22.116Z,987.4
2019-04-01T03:07:23.342Z,987.5
2019-04-01T03:08:24.618Z,987.4
2019-04-01T03:09:25.862Z,987.3
2019-04-01T03:10:27.102Z,987.4
2019-04-01T03:11:28.762Z,987.4
2019-04-01T03:12:30.004Z,987.5
2019-04-01T03:13:31.250Z,987.4
2019-04-01T03:14:32.474Z,987.5
2019-04-01T03:15:33.719Z,987.4
2019-04-01T03:16:35.011Z,987.4
2019-04-01T03:17:36.273Z,987.3
2019-04-01T03:18:37.533Z,987.4
2019-04-01T03:19:38.796Z,987.4
2019-04-01T03:20:40.012Z,987.4
2019-04-01T03:21:41.270Z,987.3
2019-04-01T03:22:42.539Z,987.4
2019-04-01T03:23:43.771Z,987.4
2019-04-01T03:24:45.029Z,987.4
2019-04-01T03:25:46.269Z,987.3
2019-04-01T03:26:47.597Z,987.3
2019-04-01T03:27:48.835Z,987
2019-04-01T03:28:50.376Z,987.4
2019-04-01T03:29:51.619Z,987.4
2019-04-01T03:30:52.874Z,986.9
2019-04-01T03:31:54.264Z,987.3
2019-04-01T03:32:55.838Z,987.3
2019-04-01T03:33:57.176Z,987.2
2019-04-01T03:34:58.448Z,987.4
2019-04-01T03:35:59.686Z,987.4
2019-04-01T03:37:00.953Z,987.3
2019-04-01T03:38:02.237Z,987.3
2019-04-01T03:39:03.618Z,987.3
2019-04-01T03:40:04.976Z,987.4
2019-04-01T03:41:06.230Z,987.3
2019-04-01T03:42:07.897Z,987.3
2019-04-01T03:43:09.144Z,987.4
2019-04-01T03:44:10.475Z,987.3
2019-04-01T03:45:11.699Z,987.3
2019-04-01T03:46:13.062Z,987.3
2019-04-01T03:47:14.351Z,987.3
2019-04-01T03:48:15.630Z,987.3
2019-04-01T03:49:16.880Z,987.4
2019-04-01T03:50:18.132Z,987.3
2019-04-01T03:51:19.352Z,987.3
2019-04-01T03:52:20.625Z,987.4
2019-04-01T03:53:21.864Z,987.3
2019-04-01T03:54:23.109Z,987.3
2019-04-01T03:55:24.430Z,987.4
2019-04-01T03:56:25.745Z,987.3
2019-04-01T03:57:27.076Z,987.4
2019-04-01T03:58:28.306Z,987.2
2019-04-01T03:59:29.540Z,987.2
2019-04-01T04:00:30.781Z,987.2
2019-04-01T04:01:32.051Z,987.3
2019-04-01T04:02:33.307Z,987.3
2019-04-01T04:03:34.560Z,987.4
2019-04-01T04:04:35.900Z,987.3
2019-04-01T04:05:37.178Z,987.3
2019-04-01T04:06:38.419Z,987.3
2019-04-01T04:07:39.745Z,987.3
2019-04-01T04:08:40.997Z,987.2
2019-04-01T04:09:42.303Z,987.2
2019-04-01T04:10:43.768Z,987.3
2019-04-01T04:11:45.007Z,987.3
2019-04-01T04:12:46.395Z,987.3
2019-04-01T04:13:47.639Z,987.3
2019-04-01T04:14:52.093Z,987.3
2019-04-01T04:15:53.327Z,987.3
2019-04-01T04:16:54.547Z,987.2
2019-04-01T04:17:55.810Z,987.4
2019-04-01T04:18:57.072Z,987.3
2019-04-01T04:19:58.429Z,987.3
2019-04-01T04:20:59.678Z,987.3
2019-04-01T04:22:00.935Z,987.2
2019-04-01T04:23:02.229Z,987.2
2019-04-01T04:24:03.493Z,987.2
2019-04-01T04:25:04.733Z,987.2
2019-04-01T04:26:06.470Z,987.3
2019-04-01T04:27:12.063Z,987.2
2019-04-01T04:28:14.407Z,987.3
2019-04-01T04:29:15.651Z,987.4
2019-04-01T04:30:16.871Z,987.3
2019-04-01T04:31:18.119Z,987.3
2019-04-01T04:32:19.369Z,987.2
2019-04-01T04:33:20.677Z,987.2
2019-04-01T04:34:21.936Z,987.2
2019-04-01T04:35:23.200Z,987.2
2019-04-01T04:36:24.441Z,987.4
2019-04-01T04:37:27.848Z,987.4
2019-04-01T04:38:29.115Z,987.3
2019-04-01T04:39:30.359Z,987.3
2019-04-01T04:40:31.579Z,987.3
2019-04-01T04:41:32.846Z,987.3
2019-04-01T04:42:34.079Z,987.4
2019-04-01T04:43:35.598Z,987.5
2019-04-01T04:44:39.065Z,987.5
2019-04-01T04:45:40.380Z,987.4
2019-04-01T04:46:41.647Z,987.4
2019-04-01T04:47:42.911Z,987.5
2019-04-01T04:48:44.170Z,987.5
2019-04-01T04:49:45.679Z,987.5
2019-04-01T04:50:46.910Z,987.6
2019-04-01T04:51:48.159Z,987.5
2019-04-01T04:52:49.388Z,987.6
2019-04-01T04:53:53.122Z,987.5
2019-04-01T04:54:54.341Z,987.5
2019-04-01T04:55:55.582Z,987.5
2019-04-01T04:56:56.835Z,987.6
2019-04-01T04:57:58.088Z,987.6
2019-04-01T04:58:59.390Z,987.6
2019-04-01T05:00:00.656Z,987.7
2019-04-01T05:01:03.875Z,987.7
2019-04-01T05:02:07.467Z,987.7
2019-04-01T05:03:08.732Z,987.7
2019-04-01T05:04:09.992Z,987.7
2019-04-01T05:05:11.216Z,987.7
2019-04-01T05:06:12.446Z,987.7
2019-04-01T05:07:13.683Z,987.6
2019-04-01T05:08:14.919Z,987.6
2019-04-01T05:09:16.194Z,987.6
2019-04-01T05:10:17.424Z,987.6
2019-04-01T05:11:18.665Z,987.6
2019-04-01T05:12:19.901Z,987.7
2019-04-01T05:13:21.154Z,987.6
2019-04-01T05:14:25.306Z,987.7
2019-04-01T05:15:26.804Z,987.7
2019-04-01T05:16:28.056Z,987.7
2019-04-01T05:17:29.287Z,987.8
2019-04-01T05:18:30.546Z,987.7
2019-04-01T05:19:31.788Z,987.7
2019-04-01T05:20:33.019Z,987.8
2019-04-01T05:21:34.256Z,987.8
2019-04-01T05:22:35.606Z,987.8
2019-04-01T05:23:36.826Z,987.8
2019-04-01T05:24:38.097Z,987.8
2019-04-01T05:25:39.334Z,987.8
2019-04-01T05:26:40.573Z,987.8
2019-04-01T05:27:41.798Z,987.7
2019-04-01T05:28:43.346Z,987.8
2019-04-01T05:29:44.672Z,987.8
2019-04-01T05:30:45.943Z,987.9
2019-04-01T05:32:00.182Z,987.9
2019-04-01T05:34:18.272Z,987.9
2019-04-01T05:35:19.540Z,987.8
2019-04-01T05:36:20.762Z,987.8
2019-04-01T05:37:22.005Z,987.8
2019-04-01T05:38:23.497Z,987.9
2019-04-01T05:39:24.732Z,987.9
2019-04-01T05:40:26.008Z,987.9
2019-04-01T05:41:27.250Z,987.9
2019-04-01T05:42:28.484Z,987.9
2019-04-01T05:43:29.717Z,987.9
2019-04-01T05:44:31.033Z,987.8
2019-04-01T05:45:32.371Z,987.9
2019-04-01T05:46:33.606Z,987.9
2019-04-01T05:47:34.838Z,987.8
2019-04-01T05:48:36.310Z,987.8
2019-04-01T05:49:37.598Z,987.7
2019-04-01T05:50:38.873Z,987.8
2019-04-01T05:51:40.178Z,987.9
2019-04-01T05:52:44.444Z,987.8
2019-04-01T05:53:45.676Z,987.9
2019-04-01T05:54:46.917Z,987.9
2019-04-01T05:55:48.148Z,987.8
2019-04-01T05:56:49.390Z,987.9
2019-04-01T05:57:50.605Z,987.9
2019-04-01T05:58:51.844Z,987.9
2019-04-01T05:59:53.342Z,987.8
2019-04-01T06:00:54.631Z,987.9
2019-04-01T06:01:56.068Z,987.8
2019-04-01T06:02:57.296Z,987.9
2019-04-01T06:03:58.529Z,987.9
2019-04-01T06:04:59.762Z,987.9
2019-04-01T06:06:01.026Z,987.9
2019-04-01T06:07:02.267Z,987.9
2019-04-01T06:08:03.721Z,987.9
2019-04-01T06:09:05.249Z,987.9
2019-04-01T06:10:06.484Z,987.9
2019-04-01T06:11:07.748Z,987.9
2019-04-01T06:12:08.978Z,987.9
2019-04-01T06:13:10.207Z,987.9
2019-04-01T06:14:11.471Z,987.9
2019-04-01T06:15:12.747Z,987.9
2019-04-01T06:16:14.025Z,987.9
2019-04-01T06:17:15.288Z,987.9
2019-04-01T06:18:16.527Z,987.9
2019-04-01T06:19:17.900Z,987.9
2019-04-01T06:20:22.622Z,987.9
2019-04-01T06:21:23.882Z,987.9
2019-04-01T06:22:25.109Z,987.9
2019-04-01T06:23:26.335Z,987.9
2019-04-01T06:24:27.608Z,987.9
2019-04-01T06:25:28.891Z,987.9
2019-04-01T06:26:32.418Z,987.9
2019-04-01T06:27:36.203Z,987.9
2019-04-01T06:28:38.574Z,987.9
2019-04-01T06:29:39.811Z,987.9
2019-04-01T06:30:42.080Z,987.9
2019-04-01T06:31:43.399Z,987.9
2019-04-01T06:32:44.699Z,987.9
2019-04-01T06:33:45.950Z,987.9
2019-04-01T06:34:55.416Z,987.9
2019-04-01T06:35:56.664Z,987.8
2019-04-01T06:36:57.921Z,987.9
2019-04-01T06:38:01.645Z,987.9
2019-04-01T06:39:02.880Z,988
2019-04-01T06:40:04.109Z,987.9
2019-04-01T06:41:05.340Z,987.9
2019-04-01T06:42:08.041Z,987.8
2019-04-01T06:43:09.302Z,987.9
2019-04-01T06:44:10.522Z,988
2019-04-01T06:45:11.761Z,988
2019-04-01T06:46:14.319Z,988
2019-04-01T06:47:15.940Z,988
2019-04-01T06:48:20.223Z,988
2019-04-01T06:49:21.485Z,988
2019-04-01T06:50:22.719Z,988
2019-04-01T06:51:23.963Z,987.9
2019-04-01T06:52:25.667Z,987.9
2019-04-01T06:53:26.899Z,988
2019-04-01T06:54:28.117Z,988
2019-04-01T06:55:29.389Z,988
2019-04-01T06:56:30.628Z,987.9
2019-04-01T06:57:32.143Z,987.9
2019-04-01T06:58:36.373Z,987.9
2019-04-01T06:59:40.065Z,987.9
2019-04-01T07:00:43.433Z,988
2019-04-01T07:01:44.969Z,987.9
2019-04-01T07:02:48.429Z,987.9
2019-04-01T07:03:49.670Z,987.8
2019-04-01T07:04:50.904Z,988
2019-04-01T07:05:52.139Z,988
2019-04-01T07:06:53.385Z,987.9
2019-04-01T07:07:54.643Z,987.9
2019-04-01T07:08:55.878Z,987.9
2019-04-01T07:09:57.358Z,987.9
2019-04-01T07:10:58.585Z,987.9
2019-04-01T07:11:59.832Z,987.9
2019-04-01T07:13:01.122Z,987.9
2019-04-01T07:14:02.368Z,987.9
2019-04-01T07:15:03.623Z,987.9
2019-04-01T07:16:16.618Z,987.9
2019-04-01T07:17:17.869Z,987.9
2019-04-01T07:18:19.398Z,987.9
2019-04-01T07:19:20.637Z,987.9
2019-04-01T07:20:21.875Z,987.9
2019-04-01T07:21:23.124Z,987.9
2019-04-01T07:22:24.644Z,987.9
2019-04-01T07:23:26.200Z,987.9
2019-04-01T07:24:27.453Z,987.9
2019-04-01T07:25:28.694Z,987.9
2019-04-01T07:26:30.211Z,987.9
2019-04-01T07:27:31.831Z,987.9
2019-04-01T07:28:34.573Z,987.9
2019-04-01T07:29:35.817Z,987.9
2019-04-01T07:30:41.740Z,987.9
2019-04-01T07:31:43.539Z,987.9
2019-04-01T07:32:45.114Z,987.9
2019-04-01T07:33:46.397Z,987.9
2019-04-01T07:34:47.639Z,987.8
2019-04-01T07:35:48.903Z,987.9
2019-04-01T07:36:50.156Z,987.9
2019-04-01T07:37:51.398Z,987.9
2019-04-01T07:38:52.682Z,987.9
2019-04-01T07:39:53.953Z,987.9
2019-04-01T07:40:55.180Z,987.7
2019-04-01T07:41:56.756Z,987.8
2019-04-01T07:43:00.541Z,987.9
2019-04-01T07:44:01.845Z,987.8
2019-04-01T07:45:03.124Z,987.9
2019-04-01T07:46:06.435Z,987.9
2019-04-01T07:47:09.569Z,987.9
2019-04-01T07:48:13.695Z,987.7
2019-04-01T07:49:15.240Z,987.9
2019-04-01T07:50:16.504Z,987.9
2019-04-01T07:51:17.749Z,987.9
2019-04-01T07:52:20.328Z,987.9
2019-04-01T07:53:21.544Z,988
2019-04-01T07:54:23.630Z,988
2019-04-01T07:55:25.181Z,988
2019-04-01T07:56:26.442Z,988
2019-04-01T07:57:27.708Z,988
2019-04-01T07:58:28.945Z,988
2019-04-01T07:59:30.270Z,988
2019-04-01T08:00:31.514Z,987.9
2019-04-01T08:01:34.993Z,987.9
2019-04-01T08:02:36.526Z,987.9
2019-04-01T08:03:37.863Z,988
2019-04-01T08:04:39.190Z,988
2019-04-01T08:05:40.432Z,988
2019-04-01T08:06:41.657Z,988
2019-04-01T08:07:42.906Z,988
2019-04-01T08:08:46.947Z,988
2019-04-01T08:09:48.232Z,988
2019-04-01T08:10:49.491Z,988
2019-04-01T08:11:51.060Z,988
2019-04-01T08:12:52.319Z,988.1
2019-04-01T08:13:54.398Z,988.1
2019-04-01T08:14:55.687Z,988
2019-04-01T08:15:56.914Z,988
2019-04-01T08:16:59.521Z,988.1
2019-04-01T08:18:00.764Z,988.1
2019-04-01T08:19:03.049Z,988
2019-04-01T08:20:04.351Z,988
2019-04-01T08:21:05.614Z,988.1
2019-04-01T08:22:06.866Z,988.1
2019-04-01T08:23:10.208Z,988.1
2019-04-01T08:24:11.570Z,988.1
2019-04-01T08:25:13.192Z,988.1
2019-04-01T08:26:14.784Z,988.2
2019-04-01T08:27:16.038Z,988.2
2019-04-01T08:28:17.263Z,988.2
2019-04-01T08:29:30.858Z,988.1
2019-04-01T08:30:32.588Z,988.2
2019-04-01T08:31:33.816Z,988.3
2019-04-01T08:32:35.079Z,988.3
2019-04-01T08:33:36.326Z,988.3
2019-04-01T08:34:37.584Z,988.3
2019-04-01T08:35:38.894Z,988.3
2019-04-01T08:36:40.136Z,988.2
2019-04-01T08:37:41.619Z,988.3
2019-04-01T08:38:42.874Z,988.3
2019-04-01T08:39:44.110Z,988.3
2019-04-01T08:40:45.386Z,988.2
2019-04-01T08:41:46.906Z,988.2
2019-04-01T08:42:49.802Z,988.3
2019-04-01T08:43:51.024Z,988.3
2019-04-01T08:44:53.137Z,988.3
2019-04-01T08:45:54.620Z,988.3
2019-04-01T08:46:55.884Z,988.3
2019-04-01T08:47:57.150Z,988.3
2019-04-01T08:48:58.384Z,988.3
2019-04-01T08:49:59.617Z,988.3
2019-04-01T08:51:03.370Z,988.3
2019-04-01T08:52:04.638Z,988.3
2019-04-01T08:53:05.894Z,988.2
2019-04-01T08:54:08.364Z,988.3
2019-04-01T08:55:09.850Z,988.2
2019-04-01T08:56:11.122Z,988.3
2019-04-01T08:57:12.352Z,988.2
2019-04-01T08:58:13.681Z,988.2
2019-04-01T08:59:15.042Z,988.2
2019-04-01T09:00:16.275Z,988.3
2019-04-01T09:01:17.540Z,988.2
2019-04-01T09:02:19.348Z,988.3
2019-04-01T09:03:20.579Z,988.3
2019-04-01T09:04:22.359Z,988.2
2019-04-01T09:05:24.678Z,988.1
2019-04-01T09:06:25.989Z,988.2
2019-04-01T09:07:28.408Z,988.1
2019-04-01T09:08:29.655Z,988.1
2019-04-01T09:09:32.232Z,988.2
2019-04-01T09:10:34.084Z,988.2
2019-04-01T09:11:39.097Z,988
2019-04-01T09:12:40.368Z,988.1
2019-04-01T09:13:41.716Z,988.1
2019-04-01T09:14:44.855Z,988
2019-04-01T09:15:46.916Z,988
2019-04-01T09:16:50.556Z,987.9
2019-04-01T09:17:51.800Z,987.9
2019-04-01T09:18:55.246Z,987.9
2019-04-01T09:19:56.482Z,987.9
2019-04-01T09:20:57.740Z,987.9
2019-04-01T09:21:59.282Z,987.8
2019-04-01T09:23:00.538Z,987.7
2019-04-01T09:24:01.813Z,987.8
2019-04-01T09:25:03.064Z,987.8
2019-04-01T09:26:04.421Z,987.7
2019-04-01T09:27:05.732Z,987.6
2019-04-01T09:28:07.248Z,987.6
2019-04-01T09:29:08.509Z,987.6
2019-04-01T09:30:11.930Z,987.6
2019-04-01T09:31:16.087Z,987.6
2019-04-01T09:32:17.377Z,987.6
2019-04-01T09:33:19.906Z,987.6
2019-04-01T09:34:21.173Z,987.6
2019-04-01T09:35:22.443Z,987.6
2019-04-01T09:36:28.775Z,987.5
2019-04-01T09:37:32.670Z,987.4
2019-04-01T09:38:34.161Z,987.3
2019-04-01T09:39:35.384Z,987.5
2019-04-01T09:40:36.640Z,987.4
2019-04-01T09:41:37.936Z,987.4
2019-04-01T09:42:39.367Z,987.2
2019-04-01T09:43:40.631Z,987.4
2019-04-01T09:44:41.903Z,987.4
2019-04-01T09:45:43.263Z,987.3
2019-04-01T09:46:52.326Z,987.3
2019-04-01T09:47:53.609Z,987.2
2019-04-01T09:48:57.082Z,987.2
2019-04-01T09:49:58.335Z,987.2
2019-04-01T09:51:02.846Z,987.2
2019-04-01T09:52:07.609Z,987.1
2019-04-01T09:53:09.380Z,987.2
2019-04-01T09:54:10.659Z,987
2019-04-01T09:55:11.905Z,987.1
2019-04-01T09:56:13.168Z,987.1
2019-04-01T09:57:18.817Z,987.1
2019-04-01T09:58:21.241Z,987
2019-04-01T09:59:23.731Z,987
2019-04-01T10:00:27.881Z,987
2019-04-01T10:01:29.543Z,987
2019-04-01T10:02:33.210Z,986.9
2019-04-01T10:03:34.687Z,986.9
2019-04-01T10:04:35.946Z,986.9
2019-04-01T10:05:37.198Z,986.9
2019-04-01T10:06:39.465Z,986.9
2019-04-01T10:07:41.192Z,986.9
2019-04-01T10:08:43.629Z,986.9
2019-04-01T10:09:46.355Z,986.9
2019-04-01T10:10:47.605Z,986.8
2019-04-01T10:11:48.900Z,986.8
2019-04-01T10:12:50.153Z,986.8
2019-04-01T10:13:51.441Z,986.8
2019-04-01T10:14:56.325Z,986.8
2019-04-01T10:15:58.951Z,986.8
2019-04-01T10:17:01.230Z,986.8
2019-04-01T10:18:02.474Z,986.7
2019-04-01T10:19:03.811Z,986.7
2019-04-01T10:20:12.445Z,986.6
2019-04-01T10:21:13.748Z,986.6
2019-04-01T10:22:18.203Z,986.6
2019-04-01T10:23:19.489Z,986.6
2019-04-01T10:24:20.801Z,986.6
2019-04-01T10:25:22.029Z,986.7
2019-04-01T10:26:23.312Z,986.6
2019-04-01T10:27:24.581Z,986.6
2019-04-01T10:28:30.481Z,986.5
2019-04-01T10:29:33.425Z,986.6
2019-04-01T10:30:34.818Z,986.5
2019-04-01T10:31:36.153Z,986.5
2019-04-01T10:32:37.401Z,986.5
2019-04-01T10:33:38.652Z,986.4
2019-04-01T10:34:40.621Z,986.5
2019-04-01T10:35:41.881Z,986.4
2019-04-01T10:36:43.519Z,986.4
2019-04-01T10:37:44.834Z,986.5
2019-04-01T10:38:47.613Z,986.3
2019-04-01T10:39:50.159Z,986.3
2019-04-01T10:40:52.449Z,986.3
2019-04-01T10:41:56.835Z,986.4
2019-04-01T10:42:58.473Z,986.2
2019-04-01T10:43:59.749Z,986.3
2019-04-01T10:45:01.053Z,986.3
2019-04-01T10:46:02.338Z,986.3
2019-04-01T10:47:03.621Z,986.2
2019-04-01T10:48:04.873Z,986.2
2019-04-01T10:49:07.860Z,986.2
2019-04-01T10:50:09.511Z,986.3
2019-04-01T10:51:15.326Z,986.1
2019-04-01T10:52:16.706Z,986.2
2019-04-01T10:53:28.930Z,986.2
2019-04-01T10:54:30.579Z,986.2
2019-04-01T10:55:32.408Z,986.2
2019-04-01T10:56:37.045Z,986.1
2019-04-01T10:57:38.449Z,986.1
2019-04-01T10:58:39.964Z,986.1
2019-04-01T10:59:41.276Z,986.1
2019-04-01T11:00:42.719Z,986.1
2019-04-01T11:01:43.994Z,986.1
2019-04-01T11:02:49.800Z,986
2019-04-01T11:03:51.939Z,986.1
2019-04-01T11:04:59.289Z,986.1
2019-04-01T11:06:01.998Z,986.1
2019-04-01T11:07:03.311Z,986
2019-04-01T11:08:07.012Z,986
2019-04-01T11:09:08.626Z,986
2019-04-01T11:10:12.512Z,986
2019-04-01T11:11:13.831Z,986
2019-04-01T11:12:17.424Z,986
2019-04-01T11:13:27.202Z,986
2019-04-01T11:14:33.345Z,986
2019-04-01T11:15:39.472Z,985.9
2019-04-01T11:16:40.738Z,986
2019-04-01T11:17:42.098Z,986
2019-04-01T11:18:43.341Z,985.9
2019-04-01T11:19:44.595Z,985.9
2019-04-01T11:20:45.835Z,985.9
2019-04-01T11:21:47.263Z,985.9
2019-04-01T11:22:48.872Z,985.8
2019-04-01T11:23:50.144Z,985.8
2019-04-01T11:24:51.380Z,985.8
2019-04-01T11:25:52.632Z,985.7
2019-04-01T11:26:58.233Z,985.7
2019-04-01T11:27:59.476Z,985.7
2019-04-01T11:29:02.736Z,985.7
2019-04-01T11:30:03.970Z,985.7
2019-04-01T11:31:06.322Z,985.8
2019-04-01T11:32:13.174Z,985.7
2019-04-01T11:33:18.339Z,985.7
2019-04-01T11:34:20.135Z,985.7
2019-04-01T11:35:24.502Z,985.6
2019-04-01T11:36:26.061Z,985.7
2019-04-01T11:37:27.422Z,985.6
2019-04-01T11:38:28.790Z,985.6
2019-04-01T11:39:30.074Z,985.6
2019-04-01T11:40:31.438Z,985.6
2019-04-01T11:41:32.753Z,985.6
2019-04-01T11:42:41.287Z,985.7
2019-04-01T11:43:42.539Z,985.6
2019-04-01T11:44:44.186Z,985.6
2019-04-01T11:45:46.269Z,985.6
2019-04-01T11:46:47.615Z,985.6
2019-04-01T11:47:49.431Z,985.6
2019-04-01T11:48:50.758Z,985.6
2019-04-01T11:49:52.184Z,985.6
2019-04-01T11:50:55.735Z,985.6
2019-04-01T11:51:57.419Z,985.3
2019-04-01T11:52:58.764Z,985.5
2019-04-01T11:54:00.000Z,985.5
2019-04-01T11:55:01.241Z,985.5
2019-04-01T11:56:02.491Z,985.5
2019-04-01T11:57:03.724Z,985.5
2019-04-01T11:58:05.012Z,985.5
2019-04-01T11:59:06.298Z,985.4
2019-04-01T12:00:13.179Z,985.4
2019-04-01T12:01:14.746Z,985.4
2019-04-01T12:02:17.200Z,985.3
2019-04-01T12:03:19.060Z,985.4
2019-04-01T12:04:22.658Z,985.3
2019-04-01T12:05:23.892Z,985.4
2019-04-01T12:06:25.393Z,985.4
2019-04-01T12:07:26.918Z,985.3
2019-04-01T12:08:28.189Z,985.4
2019-04-01T12:09:29.440Z,985.3
2019-04-01T12:10:30.677Z,985.3
2019-04-01T12:11:35.924Z,985.3
2019-04-01T12:12:37.350Z,985.3
2019-04-01T12:13:38.662Z,985.3
2019-04-01T12:14:43.916Z,985.3
2019-04-01T12:15:45.165Z,985.3
2019-04-01T12:16:46.414Z,985.3
2019-04-01T12:17:48.074Z,985.3
2019-04-01T12:18:49.360Z,985.2
2019-04-01T12:19:53.962Z,985.2
2019-04-01T12:20:55.190Z,985.3
2019-04-01T12:21:56.680Z,985.2
2019-04-01T12:22:58.158Z,985.2
2019-04-01T12:23:59.424Z,985.1
2019-04-01T12:25:00.888Z,985.2
2019-04-01T12:26:16.877Z,985.2
2019-04-01T12:27:18.930Z,985.2
2019-04-01T12:28:20.180Z,985.2
2019-04-01T12:29:21.474Z,985.1
2019-04-01T12:30:22.724Z,985.1
2019-04-01T12:31:23.960Z,985.1
2019-04-01T12:32:26.496Z,985.1
2019-04-01T12:33:29.934Z,985.1
2019-04-01T12:34:31.210Z,985.1
2019-04-01T12:35:32.478Z,985
2019-04-01T12:36:33.717Z,985
2019-04-01T12:37:40.375Z,985
2019-04-01T12:38:41.602Z,984.9
2019-04-01T12:39:43.041Z,984.9
2019-04-01T12:40:44.460Z,984.9
2019-04-01T12:41:45.782Z,984.9
2019-04-01T12:42:51.414Z,985
2019-04-01T12:43:52.910Z,984.9
2019-04-01T12:44:54.418Z,984.9
2019-04-01T12:45:55.660Z,984.9
2019-04-01T12:46:56.910Z,984.8
2019-04-01T12:48:01.248Z,984.8
2019-04-01T12:49:02.793Z,984.8
2019-04-01T12:50:04.103Z,984.7
2019-04-01T12:51:05.351Z,984.8
2019-04-01T12:52:06.566Z,984.7
2019-04-01T12:53:08.269Z,984.8
2019-04-01T12:54:09.488Z,984.7
2019-04-01T12:55:10.882Z,984.7
2019-04-01T12:56:14.625Z,984.7
2019-04-01T12:57:20.938Z,984.6
2019-04-01T12:58:26.035Z,984.7
2019-04-01T12:59:27.302Z,984.6
2019-04-01T13:00:30.069Z,984.6
2019-04-01T13:01:31.303Z,984.6
2019-04-01T13:02:32.744Z,984.6
2019-04-01T13:03:34.260Z,984.5
2019-04-01T13:04:36.910Z,984.6
2019-04-01T13:05:40.300Z,984.6
2019-04-01T13:06:42.889Z,984.6
2019-04-01T13:07:45.335Z,984.3
2019-04-01T13:08:46.606Z,984.4
2019-04-01T13:09:50.843Z,984.5
2019-04-01T13:10:56.205Z,984.5
2019-04-01T13:11:57.883Z,984.4
2019-04-01T13:12:59.528Z,984.5
2019-04-01T13:14:00.775Z,984.4
2019-04-01T13:15:02.325Z,984.4
2019-04-01T13:16:03.607Z,984.4
2019-04-01T13:17:04.839Z,984.4
2019-04-01T13:18:06.398Z,984.4
2019-04-01T13:19:07.989Z,984.4
2019-04-01T13:20:09.249Z,984.3
2019-04-01T13:21:11.829Z,984.3
2019-04-01T13:22:15.905Z,984.4